KFCS/FCS METAR and TAF weather

Enter ICAO airport designator
Station Type Date Time Source
KFCS METAR 2018/12/15 20:58 UTC NOAA

KFCS 152058Z AUTO 00000KT 10SM CLR 13/M14 A3004 RMK AO2 SLP191 T01341145 56013 $


Station Type Date Time Source
KFCS Decoded METAR 2018/12/15 20:58 UTC NOAA

Fort Carson, CO, United States (KFCS) 38-42N 104-46W 1789M
Dec 15, 2018 - 03:58 PM EST / 2018.12.15 2058 UTC
Wind: Calm:0
Visibility: 10 mile(s):0
Sky conditions: clear
Temperature: 56.1 F (13.4 C)
Dew Point: 5.9 F (-14.5 C)
Relative Humidity: 12%
Pressure (altimeter): 30.04 in. Hg (1017 hPa)
Pressure tendency: 0.04 inches (1.3 hPa) lower than three hours ago
ob: KFCS 152058Z AUTO 00000KT 10SM CLR 13/M14 A3004 RMK AO2 SLP191 T01341145 56013
cycle: 21

Station Type Date Time Source
KFCS TAF 2018/12/15 21:06 UTC NOAA

TAF TAF KFCS 152101Z 1521/1703 29009KT 9999 FEW100 SCT150 QNH3001INS
BECMG 1609/1610 VRB06KT 9999 SKC QNH3030INS TX15/1522Z TNM03/1612Z


Example: see airport list